Terminal Aerodrome Forecast
Issued by NWS Lubbock, TX

Home | Current Version | Previous Version | Text Only | Print | Product List | Glossary On
Versions: 1 2 3 4 5 6 7 8 9 10 11 12 13
000
FTUS44 KLUB 270500
TAFLBB
TAF
KLBB 270520Z 2706/2806 13004KT P6SM FEW250
     FM271800 20012KT P6SM FEW250
     FM272300 19008KT P6SM FEW250=

USA.gov is the U.S. government's official web portal to all federal, state and local government web resources and services.